Time;durP1;ratioP1;P1;durP2;ratioP2;P2;SDS_P1;SDS_P2;PMS_P1;PMS_P2;Temp;Humidity;BMP_temperature;BMP_pressure;BME280_temperature;BME280_humidity;BME280_pressure;Samples;Min_cycle;Max_cycle;Signal;HPM_P1;HPM_P2
2024/01/24 00:02:10;;;;;;;;;0.00;0.00;;;;;;;;5019083;28;45482;-63
2024/01/24 00:04:35;;;;;;;;;0.00;0.00;;;;;;;;5024357;28;47930;-64
2024/01/24 00:07:00;;;;;;;;;0.00;0.00;;;;;;;;5038067;28;45399;-63
2024/01/24 00:09:26;;;;;;;;;0.00;0.00;;;;;;;;5036448;28;45485;-63
2024/01/24 00:11:51;;;;;;;;;0.00;0.00;;;;;;;;5034728;28;45500;-63
2024/01/24 00:14:16;;;;;;;;;0.00;0.00;;;;;;;;5038753;28;45328;-63
2024/01/24 00:16:41;;;;;;;;;0.00;0.00;;;;;;;;5029021;28;45313;-63
2024/01/24 00:19:06;;;;;;;;;0.00;0.00;;;;;;;;5041038;28;45585;-63
2024/01/24 00:21:32;;;;;;;;;0.00;0.00;;;;;;;;5035785;28;45759;-63
2024/01/24 00:23:57;;;;;;;;;1.00;0.00;;;;;;;;5026486;28;46224;-63
2024/01/24 00:26:22;;;;;;;;;0.00;0.00;;;;;;;;5035345;28;45443;-63
2024/01/24 00:28:47;;;;;;;;;0.00;0.00;;;;;;;;5039307;28;45407;-63
2024/01/24 00:31:13;;;;;;;;;0.00;0.00;;;;;;;;5040553;28;45508;-63
2024/01/24 00:33:38;;;;;;;;;0.00;0.00;;;;;;;;5034121;28;46985;-63
2024/01/24 00:36:04;;;;;;;;;0.00;0.00;;;;;;;;5032728;28;45268;-64
2024/01/24 00:38:29;;;;;;;;;0.00;0.00;;;;;;;;5022049;28;45381;-63
2024/01/24 00:40:54;;;;;;;;;0.00;0.00;;;;;;;;5034080;28;45456;-63
2024/01/24 00:43:19;;;;;;;;;0.00;0.00;;;;;;;;5032339;28;46890;-63
2024/01/24 00:45:44;;;;;;;;;0.00;0.00;;;;;;;;5042514;28;45424;-64
2024/01/24 00:48:10;;;;;;;;;0.00;0.00;;;;;;;;5040689;28;45406;-63
2024/01/24 00:50:35;;;;;;;;;0.00;0.00;;;;;;;;5040538;28;45565;-63
2024/01/24 00:53:03;;;;;;;;;0.67;0.67;;;;;;;;5023985;28;48038;-63
2024/01/24 00:55:30;;;;;;;;;0.00;0.00;;;;;;;;5021019;28;45668;-63
2024/01/24 00:57:55;;;;;;;;;0.00;0.00;;;;;;;;5026060;28;45484;-63
2024/01/24 01:00:20;;;;;;;;;0.00;0.00;;;;;;;;5037887;28;45425;-63
2024/01/24 01:02:45;;;;;;;;;0.00;0.00;;;;;;;;5031170;28;45608;-63
2024/01/24 01:05:11;;;;;;;;;0.00;0.00;;;;;;;;5032072;28;45457;-63
2024/01/24 01:07:36;;;;;;;;;0.50;0.00;;;;;;;;5039601;28;45425;-63
2024/01/24 01:10:01;;;;;;;;;0.00;0.00;;;;;;;;5037381;28;45400;-63
2024/01/24 01:12:26;;;;;;;;;0.00;0.00;;;;;;;;5040004;28;45303;-63
2024/01/24 01:14:51;;;;;;;;;0.00;0.00;;;;;;;;5024377;28;45277;-63
2024/01/24 01:17:17;;;;;;;;;0.00;0.00;;;;;;;;5020970;28;45511;-63
2024/01/24 01:19:42;;;;;;;;;0.00;0.00;;;;;;;;5022954;28;45447;-63
2024/01/24 01:22:07;;;;;;;;;0.50;0.00;;;;;;;;5020286;28;45356;-63
2024/01/24 01:24:32;;;;;;;;;0.00;0.00;;;;;;;;5026871;28;45450;-63
2024/01/24 01:26:58;;;;;;;;;0.00;0.00;;;;;;;;5040798;28;45568;-63
2024/01/24 01:29:23;;;;;;;;;0.00;0.00;;;;;;;;5021784;28;45282;-63
2024/01/24 01:31:48;;;;;;;;;0.00;0.00;;;;;;;;5030304;28;45548;-63
2024/01/24 01:34:14;;;;;;;;;0.00;0.00;;;;;;;;5027968;28;45382;-63
2024/01/24 01:36:39;;;;;;;;;0.00;0.00;;;;;;;;5031278;28;45897;-64
2024/01/24 01:39:04;;;;;;;;;0.00;0.00;;;;;;;;5020411;28;45312;-63
2024/01/24 01:41:29;;;;;;;;;0.00;0.00;;;;;;;;5023084;28;45367;-63
2024/01/24 01:43:55;;;;;;;;;0.00;0.00;;;;;;;;5030094;28;45451;-63
2024/01/24 01:46:21;;;;;;;;;0.00;0.00;;;;;;;;5040594;28;45317;-63
2024/01/24 01:48:49;;;;;;;;;0.00;0.00;;;;;;;;5040040;28;45418;-63
2024/01/24 01:51:15;;;;;;;;;0.00;0.00;;;;;;;;5038023;28;46612;-63
2024/01/24 01:53:40;;;;;;;;;0.00;0.00;;;;;;;;5038181;28;45717;-63
2024/01/24 01:56:10;;;;;;;;;0.00;0.00;;;;;;;;5040411;28;45625;-64
2024/01/24 02:04:04;;;;;;;;;0.00;0.00;;;;;;;;5025374;28;71590;-63
2024/01/24 02:06:29;;;;;;;;;0.00;0.00;;;;;;;;5026787;28;45367;-63
2024/01/24 02:08:54;;;;;;;;;0.00;0.00;;;;;;;;5038209;28;45383;-63
2024/01/24 02:11:20;;;;;;;;;0.00;0.00;;;;;;;;5033146;28;46489;-63
2024/01/24 02:13:46;;;;;;;;;0.00;0.00;;;;;;;;5028218;28;45634;-63
2024/01/24 02:16:13;;;;;;;;;0.00;0.00;;;;;;;;5033213;28;45441;-63
2024/01/24 02:18:39;;;;;;;;;0.00;0.00;;;;;;;;5028646;28;45600;-63
2024/01/24 02:21:04;;;;;;;;;0.00;0.00;;;;;;;;5023739;28;45461;-63
2024/01/24 02:23:30;;;;;;;;;0.00;0.00;;;;;;;;5033893;28;45401;-63
2024/01/24 02:25:55;;;;;;;;;0.00;0.00;;;;;;;;5027637;28;45411;-63
2024/01/24 02:28:20;;;;;;;;;0.00;0.00;;;;;;;;5032288;28;45478;-63
2024/01/24 02:30:46;;;;;;;;;0.00;0.00;;;;;;;;5028239;28;45630;-64
2024/01/24 02:33:11;;;;;;;;;0.00;0.00;;;;;;;;5028580;28;45285;-63
2024/01/24 02:35:36;;;;;;;;;0.00;0.00;;;;;;;;5036425;28;45346;-63
2024/01/24 02:38:02;;;;;;;;;0.00;0.00;;;;;;;;5037097;28;45365;-63
2024/01/24 02:40:27;;;;;;;;;0.00;0.00;;;;;;;;5026568;28;47326;-63
2024/01/24 02:42:52;;;;;;;;;0.00;0.00;;;;;;;;5029588;28;45382;-63
2024/01/24 02:45:19;;;;;;;;;0.00;0.00;;;;;;;;5033822;28;45390;-63
2024/01/24 02:47:44;;;;;;;;;0.00;0.00;;;;;;;;5033064;28;45335;-63
2024/01/24 02:50:10;;;;;;;;;0.00;0.00;;;;;;;;5032547;28;45537;-63
2024/01/24 02:52:35;;;;;;;;;0.00;0.00;;;;;;;;5039126;28;45268;-63
2024/01/24 02:55:01;;;;;;;;;0.00;0.00;;;;;;;;5037894;28;45487;-63
2024/01/24 02:57:26;;;;;;;;;0.00;0.00;;;;;;;;5039106;28;45590;-63
2024/01/24 02:59:51;;;;;;;;;0.00;0.00;;;;;;;;5031787;28;47520;-63
2024/01/24 03:02:16;;;;;;;;;0.00;0.00;;;;;;;;5034337;28;45499;-63
2024/01/24 03:04:41;;;;;;;;;0.00;0.00;;;;;;;;5032909;28;45407;-63
2024/01/24 03:07:07;;;;;;;;;0.00;0.00;;;;;;;;5028176;28;45539;-63
2024/01/24 03:09:32;;;;;;;;;0.00;0.00;;;;;;;;5019111;28;45551;-63
2024/01/24 03:11:57;;;;;;;;;0.00;0.00;;;;;;;;5033978;28;45378;-64
2024/01/24 03:14:24;;;;;;;;;0.00;0.00;;;;;;;;5036470;28;45521;-63
2024/01/24 03:16:49;;;;;;;;;0.00;0.00;;;;;;;;5039015;28;45441;-63
2024/01/24 03:19:14;;;;;;;;;0.00;0.00;;;;;;;;5038681;28;45460;-63
2024/01/24 03:21:40;;;;;;;;;0.00;0.00;;;;;;;;5033595;28;45459;-63
2024/01/24 03:24:05;;;;;;;;;0.00;0.00;;;;;;;;5037071;28;45401;-63
2024/01/24 03:26:30;;;;;;;;;0.00;0.00;;;;;;;;5038574;28;45504;-63
2024/01/24 03:28:56;;;;;;;;;0.00;0.00;;;;;;;;5023668;28;45756;-63
2024/01/24 03:31:21;;;;;;;;;0.00;0.00;;;;;;;;5028472;28;45350;-63
2024/01/24 03:33:46;;;;;;;;;0.00;0.00;;;;;;;;5038709;28;45755;-63
2024/01/24 03:36:11;;;;;;;;;0.00;0.00;;;;;;;;5034328;28;45662;-64
2024/01/24 03:38:36;;;;;;;;;0.00;0.00;;;;;;;;5021106;28;46311;-63
2024/01/24 03:41:02;;;;;;;;;0.00;0.00;;;;;;;;5022446;28;45779;-63
2024/01/24 03:43:27;;;;;;;;;0.00;0.00;;;;;;;;5023436;28;45304;-63
2024/01/24 03:45:52;;;;;;;;;0.00;0.00;;;;;;;;5037257;28;45360;-63
2024/01/24 03:48:17;;;;;;;;;0.00;0.00;;;;;;;;5024615;28;46195;-63
2024/01/24 03:50:43;;;;;;;;;0.00;0.00;;;;;;;;5032552;28;45565;-63
2024/01/24 03:53:08;;;;;;;;;0.00;0.00;;;;;;;;5017287;28;45361;-63
2024/01/24 03:55:33;;;;;;;;;0.00;0.00;;;;;;;;5030635;28;45647;-63
2024/01/24 03:57:58;;;;;;;;;0.25;0.00;;;;;;;;5029419;28;45354;-63
2024/01/24 04:00:24;;;;;;;;;0.00;0.00;;;;;;;;5037224;28;45363;-63
2024/01/24 04:02:49;;;;;;;;;0.00;0.00;;;;;;;;5035858;28;45295;-63
2024/01/24 04:05:14;;;;;;;;;0.00;0.00;;;;;;;;5037161;28;45614;-63
2024/01/24 04:07:40;;;;;;;;;0.00;0.00;;;;;;;;5025178;28;48225;-63
2024/01/24 04:10:05;;;;;;;;;0.00;0.00;;;;;;;;5037486;28;45447;-63
2024/01/24 04:12:30;;;;;;;;;0.00;0.00;;;;;;;;5031690;28;45261;-63
2024/01/24 04:14:56;;;;;;;;;0.00;0.00;;;;;;;;5029924;28;45424;-63
2024/01/24 04:17:21;;;;;;;;;0.00;0.00;;;;;;;;5018037;28;46507;-63
2024/01/24 04:19:46;;;;;;;;;0.00;0.00;;;;;;;;5020992;28;45369;-63
2024/01/24 04:22:11;;;;;;;;;0.00;0.00;;;;;;;;5032725;28;45617;-63
2024/01/24 04:24:37;;;;;;;;;0.00;0.00;;;;;;;;5027001;28;45801;-64
2024/01/24 04:27:02;;;;;;;;;0.00;0.00;;;;;;;;5033787;28;46041;-63
2024/01/24 04:29:27;;;;;;;;;0.00;0.00;;;;;;;;5018621;28;45604;-63
2024/01/24 04:31:52;;;;;;;;;0.00;0.00;;;;;;;;5030678;28;45378;-63
2024/01/24 04:34:18;;;;;;;;;0.00;0.00;;;;;;;;5036594;28;45382;-64
2024/01/24 04:36:46;;;;;;;;;0.00;0.00;;;;;;;;5038152;28;45449;-63
2024/01/24 04:39:11;;;;;;;;;0.00;0.00;;;;;;;;5017924;28;45517;-64
2024/01/24 04:41:37;;;;;;;;;0.00;0.00;;;;;;;;5028155;28;45364;-63
2024/01/24 04:44:02;;;;;;;;;0.00;0.00;;;;;;;;5035840;28;45302;-63
2024/01/24 04:46:27;;;;;;;;;0.00;0.00;;;;;;;;5036238;28;48163;-63
2024/01/24 04:48:52;;;;;;;;;0.00;0.00;;;;;;;;5036446;28;45576;-63
2024/01/24 04:51:18;;;;;;;;;0.00;0.00;;;;;;;;5031369;28;45576;-63
2024/01/24 04:53:43;;;;;;;;;0.00;0.00;;;;;;;;5037438;28;45609;-63
2024/01/24 04:56:08;;;;;;;;;0.00;0.00;;;;;;;;5037252;28;46530;-63
2024/01/24 04:58:33;;;;;;;;;0.00;0.00;;;;;;;;5039880;28;45339;-63
2024/01/24 05:00:58;;;;;;;;;0.00;0.00;;;;;;;;5037292;28;45357;-63
2024/01/24 05:03:24;;;;;;;;;0.00;0.00;;;;;;;;5040983;28;45248;-63
2024/01/24 05:05:49;;;;;;;;;0.50;0.00;;;;;;;;5037188;28;45618;-63
2024/01/24 05:08:14;;;;;;;;;0.00;0.00;;;;;;;;5021134;28;45242;-63
2024/01/24 05:10:39;;;;;;;;;0.00;0.00;;;;;;;;5023330;28;45249;-63
2024/01/24 05:13:04;;;;;;;;;0.00;0.00;;;;;;;;5028611;28;45344;-63
2024/01/24 05:15:30;;;;;;;;;0.00;0.00;;;;;;;;5040378;28;46195;-63
2024/01/24 05:17:55;;;;;;;;;0.00;0.00;;;;;;;;5039224;28;45368;-63
2024/01/24 05:20:20;;;;;;;;;0.00;0.00;;;;;;;;5041103;28;45375;-63
2024/01/24 05:22:46;;;;;;;;;0.00;0.00;;;;;;;;5028025;28;45511;-63
2024/01/24 05:25:11;;;;;;;;;0.00;0.00;;;;;;;;5040477;28;45585;-63
2024/01/24 05:27:36;;;;;;;;;0.00;0.00;;;;;;;;5035189;28;45412;-63
2024/01/24 05:30:03;;;;;;;;;0.00;0.00;;;;;;;;5034339;28;45559;-63
2024/01/24 05:32:28;;;;;;;;;0.00;0.00;;;;;;;;5023702;28;45377;-63
2024/01/24 05:34:54;;;;;;;;;0.00;0.00;;;;;;;;5028641;28;47328;-64
2024/01/24 05:37:19;;;;;;;;;0.00;0.00;;;;;;;;5027474;28;45500;-63
2024/01/24 05:39:44;;;;;;;;;0.00;0.00;;;;;;;;5040457;28;45365;-64
2024/01/24 05:42:09;;;;;;;;;0.00;0.00;;;;;;;;5028907;28;45491;-63
2024/01/24 05:44:35;;;;;;;;;0.00;0.00;;;;;;;;5039925;28;45410;-64
2024/01/24 05:47:00;;;;;;;;;0.00;0.00;;;;;;;;5040026;28;45479;-63
2024/01/24 05:49:25;;;;;;;;;0.00;0.00;;;;;;;;5040347;28;45604;-63
2024/01/24 05:51:50;;;;;;;;;0.00;0.00;;;;;;;;5029406;28;45491;-63
2024/01/24 05:54:15;;;;;;;;;0.00;0.00;;;;;;;;5022471;28;45601;-63
2024/01/24 05:56:41;;;;;;;;;0.00;0.00;;;;;;;;5040235;28;45613;-63
2024/01/24 05:59:06;;;;;;;;;0.00;0.00;;;;;;;;5040532;28;45432;-63
2024/01/24 06:01:31;;;;;;;;;0.00;0.00;;;;;;;;5031931;28;45394;-63
2024/01/24 06:03:56;;;;;;;;;0.00;0.00;;;;;;;;5019918;28;46300;-63
2024/01/24 06:06:21;;;;;;;;;0.00;0.00;;;;;;;;5038050;28;45346;-64
2024/01/24 06:08:47;;;;;;;;;0.00;0.00;;;;;;;;5039535;28;45500;-63
2024/01/24 06:11:14;;;;;;;;;0.00;0.00;;;;;;;;5036790;28;45551;-63
2024/01/24 06:13:39;;;;;;;;;0.00;0.00;;;;;;;;5037584;28;45622;-63
2024/01/24 06:16:04;;;;;;;;;0.00;0.00;;;;;;;;5026335;28;45325;-64
2024/01/24 06:18:30;;;;;;;;;0.00;0.00;;;;;;;;5037979;28;45409;-63
2024/01/24 06:20:55;;;;;;;;;0.00;0.00;;;;;;;;5037755;28;45723;-64
2024/01/24 06:23:20;;;;;;;;;0.00;0.00;;;;;;;;5019805;28;46618;-63
2024/01/24 06:25:45;;;;;;;;;0.00;0.00;;;;;;;;5034590;28;45570;-64
2024/01/24 06:28:11;;;;;;;;;0.00;0.00;;;;;;;;5029654;28;45425;-64
2024/01/24 06:30:36;;;;;;;;;0.75;0.00;;;;;;;;5038195;28;45555;-63
2024/01/24 06:33:01;;;;;;;;;0.00;0.00;;;;;;;;5020295;28;45371;-63
2024/01/24 06:35:26;;;;;;;;;0.00;0.00;;;;;;;;5029359;28;46263;-64
2024/01/24 06:37:52;;;;;;;;;0.67;0.00;;;;;;;;5034555;28;45610;-64
2024/01/24 06:40:19;;;;;;;;;0.00;0.00;;;;;;;;5032474;28;45336;-64
2024/01/24 06:42:44;;;;;;;;;0.00;0.00;;;;;;;;5035041;28;45514;-64
2024/01/24 06:45:10;;;;;;;;;0.00;0.00;;;;;;;;5039489;28;45419;-71
2024/01/24 06:47:35;;;;;;;;;0.00;0.00;;;;;;;;5033743;28;45357;-71
2024/01/24 06:50:00;;;;;;;;;0.00;0.00;;;;;;;;5036028;28;45308;-72
2024/01/24 06:52:30;;;;;;;;;0.00;0.00;;;;;;;;5034955;28;47838;-72
2024/01/24 06:54:55;;;;;;;;;0.25;0.00;;;;;;;;5037794;28;45351;-74
2024/01/24 06:57:21;;;;;;;;;0.00;0.00;;;;;;;;5038968;28;45441;-74
2024/01/24 06:59:46;;;;;;;;;0.00;0.00;;;;;;;;5036469;28;45607;-74
2024/01/24 07:02:13;;;;;;;;;0.00;0.00;;;;;;;;5038614;28;45706;-74
2024/01/24 07:04:38;;;;;;;;;0.00;0.00;;;;;;;;5026035;28;45470;-74
2024/01/24 07:07:04;;;;;;;;;0.00;0.00;;;;;;;;5037305;28;45553;-74
2024/01/24 07:09:29;;;;;;;;;0.00;0.00;;;;;;;;5028321;28;45485;-74
2024/01/24 07:11:55;;;;;;;;;0.00;0.00;;;;;;;;5031908;28;45531;-74
2024/01/24 07:14:21;;;;;;;;;1.00;0.00;;;;;;;;5027215;28;45701;-73
2024/01/24 07:16:46;;;;;;;;;0.00;0.00;;;;;;;;5036173;28;45400;-72
2024/01/24 07:19:12;;;;;;;;;0.50;0.50;;;;;;;;5033254;28;45512;-74
2024/01/24 07:21:37;;;;;;;;;0.00;0.00;;;;;;;;5052575;28;46765;-74
2024/01/24 07:24:03;;;;;;;;;1.00;0.00;;;;;;;;5036796;28;45574;-73
2024/01/24 07:26:32;;;;;;;;;0.00;0.00;;;;;;;;5033847;28;45510;-73
2024/01/24 07:28:59;;;;;;;;;0.00;0.00;;;;;;;;5027432;28;45536;-73
2024/01/24 07:31:25;;;;;;;;;0.00;0.00;;;;;;;;5036814;28;46788;-73
2024/01/24 07:33:53;;;;;;;;;1.25;0.00;;;;;;;;5036792;28;45517;-73
2024/01/24 07:36:21;;;;;;;;;1.25;0.00;;;;;;;;5036322;28;45426;-72
2024/01/24 07:38:49;;;;;;;;;0.00;0.00;;;;;;;;5036522;28;45712;-78
2024/01/24 07:41:14;;;;;;;;;0.00;0.00;;;;;;;;5037736;28;45544;-73
2024/01/24 07:43:40;;;;;;;;;1.00;0.00;;;;;;;;5021945;28;45662;-73
2024/01/24 07:46:13;;;;;;;;;1.00;0.00;;;;;;;;5028921;28;45667;-72
2024/01/24 07:48:38;;;;;;;;;0.00;0.00;;;;;;;;5031982;28;47050;-65
2024/01/24 07:51:04;;;;;;;;;0.00;0.00;;;;;;;;5025277;28;48191;-65
2024/01/24 07:53:29;;;;;;;;;3.50;2.00;;;;;;;;5026573;28;45525;-65
2024/01/24 07:55:56;;;;;;;;;1.25;0.00;;;;;;;;5027588;28;45465;-65
2024/01/24 07:58:21;;;;;;;;;1.00;1.00;;;;;;;;5035899;28;45450;-65
2024/01/24 08:00:46;;;;;;;;;0.67;0.00;;;;;;;;5035743;28;45505;-65
2024/01/24 08:03:12;;;;;;;;;1.50;0.00;;;;;;;;5037034;28;45319;-65
2024/01/24 08:05:37;;;;;;;;;0.25;0.00;;;;;;;;5035125;28;45255;-65
2024/01/24 08:08:03;;;;;;;;;0.67;0.00;;;;;;;;5031075;28;45315;-65
2024/01/24 08:10:29;;;;;;;;;0.75;0.00;;;;;;;;5024389;28;45359;-65
2024/01/24 08:12:54;;;;;;;;;2.00;1.00;;;;;;;;5025215;28;45383;-65
2024/01/24 08:15:20;;;;;;;;;2.00;1.00;;;;;;;;5033328;28;45398;-65
2024/01/24 08:17:45;;;;;;;;;3.00;0.00;;;;;;;;5034310;28;45821;-65
2024/01/24 08:20:11;;;;;;;;;2.00;0.00;;;;;;;;5029871;28;46361;-65
2024/01/24 08:22:36;;;;;;;;;0.00;0.00;;;;;;;;5027627;28;45609;-66
2024/01/24 08:25:02;;;;;;;;;0.00;0.00;;;;;;;;5016696;28;45678;-66
2024/01/24 08:27:29;;;;;;;;;0.00;0.00;;;;;;;;5024250;28;45711;-66
2024/01/24 08:29:56;;;;;;;;;0.00;0.00;;;;;;;;5029560;28;46129;-66
2024/01/24 08:32:22;;;;;;;;;0.75;0.00;;;;;;;;5028868;28;45849;-66
2024/01/24 08:34:47;;;;;;;;;1.75;0.00;;;;;;;;5035750;28;45574;-65
2024/01/24 08:37:12;;;;;;;;;1.00;1.00;;;;;;;;5038163;28;45323;-67
2024/01/24 08:39:38;;;;;;;;;0.00;0.00;;;;;;;;5028273;28;46231;-66
2024/01/24 08:42:04;;;;;;;;;0.75;0.75;;;;;;;;5038318;28;46270;-66
2024/01/24 08:44:29;;;;;;;;;0.25;0.25;;;;;;;;5037716;28;45400;-66
2024/01/24 08:46:54;;;;;;;;;1.00;1.00;;;;;;;;5022580;28;45518;-66
2024/01/24 08:49:19;;;;;;;;;3.33;0.67;;;;;;;;5031062;28;45816;-66
2024/01/24 08:51:45;;;;;;;;;0.33;0.33;;;;;;;;5038702;28;45894;-66
2024/01/24 08:54:11;;;;;;;;;4.75;1.50;;;;;;;;5039333;28;45390;-66
2024/01/24 08:56:37;;;;;;;;;1.00;1.00;;;;;;;;5039923;28;45541;-66
2024/01/24 08:59:02;;;;;;;;;1.00;1.00;;;;;;;;5038645;28;45489;-66
2024/01/24 09:01:28;;;;;;;;;3.00;2.00;;;;;;;;5034857;28;45553;-66
2024/01/24 09:03:53;;;;;;;;;1.50;0.00;;;;;;;;5038225;28;45938;-65
2024/01/24 09:06:20;;;;;;;;;7.25;0.50;;;;;;;;5028226;28;45531;-66
2024/01/24 09:08:45;;;;;;;;;2.50;2.00;;;;;;;;5021602;28;46274;-65
2024/01/24 09:11:10;;;;;;;;;0.67;0.00;;;;;;;;5039452;28;45425;-64
2024/01/24 09:13:35;;;;;;;;;2.67;1.00;;;;;;;;5036175;28;45717;-67
2024/01/24 09:16:01;;;;;;;;;4.00;1.67;;;;;;;;5026192;28;45592;-66
2024/01/24 09:18:27;;;;;;;;;2.25;1.00;;;;;;;;5027011;28;45479;-67
2024/01/24 09:20:52;;;;;;;;;1.00;1.00;;;;;;;;5028000;28;45668;-64
2024/01/24 09:23:18;;;;;;;;;2.00;1.00;;;;;;;;5029941;28;45502;-64
2024/01/24 09:25:43;;;;;;;;;2.75;0.50;;;;;;;;5034392;28;45562;-64
2024/01/24 09:28:10;;;;;;;;;1.00;1.00;;;;;;;;5037984;28;47339;-64
2024/01/24 09:30:35;;;;;;;;;1.50;1.50;;;;;;;;5038228;28;45595;-64
2024/01/24 09:33:00;;;;;;;;;2.75;1.00;;;;;;;;5038567;28;45774;-64
2024/01/24 09:35:26;;;;;;;;;4.00;1.67;;;;;;;;5029886;28;47098;-64
2024/01/24 09:37:51;;;;;;;;;3.67;2.00;;;;;;;;5027246;28;47564;-64
2024/01/24 09:40:17;;;;;;;;;2.67;1.00;;;;;;;;5033169;28;45835;-64
2024/01/24 09:42:43;;;;;;;;;1.75;0.50;;;;;;;;5025356;28;45489;-64
2024/01/24 09:45:09;;;;;;;;;5.50;1.75;;;;;;;;5028784;28;45489;-65
2024/01/24 09:47:34;;;;;;;;;0.75;0.75;;;;;;;;5031029;28;45781;-65
2024/01/24 09:50:03;;;;;;;;;4.00;2.00;;;;;;;;5029325;28;45508;-64
2024/01/24 09:52:28;;;;;;;;;5.25;2.00;;;;;;;;5035161;28;45300;-64
2024/01/24 09:54:57;;;;;;;;;2.50;2.25;;;;;;;;5039043;28;45426;-64
2024/01/24 09:57:23;;;;;;;;;7.50;2.75;;;;;;;;5028764;28;47197;-64
2024/01/24 09:59:48;;;;;;;;;2.25;1.00;;;;;;;;5034839;28;45470;-64
2024/01/24 10:02:14;;;;;;;;;4.00;2.00;;;;;;;;5033880;28;45835;-64
2024/01/24 10:04:40;;;;;;;;;6.50;4.00;;;;;;;;5029428;28;45497;-64
2024/01/24 10:07:09;;;;;;;;;3.75;1.50;;;;;;;;5029938;28;46459;-65
2024/01/24 10:09:34;;;;;;;;;3.00;2.25;;;;;;;;5026788;28;45452;-65
2024/01/24 10:11:59;;;;;;;;;6.67;2.67;;;;;;;;5027961;28;45616;-65
2024/01/24 10:14:24;;;;;;;;;3.00;2.00;;;;;;;;5029066;28;45605;-64
2024/01/24 10:16:50;;;;;;;;;7.00;3.00;;;;;;;;5035018;28;45584;-64
2024/01/24 10:19:15;;;;;;;;;5.50;4.00;;;;;;;;5024398;28;45450;-64
2024/01/24 10:21:41;;;;;;;;;1.25;1.25;;;;;;;;5031903;28;45380;-64
2024/01/24 10:24:09;;;;;;;;;7.25;3.50;;;;;;;;5036057;28;45511;-64
2024/01/24 10:26:34;;;;;;;;;7.75;3.75;;;;;;;;5036205;28;45347;-64
2024/01/24 10:29:00;;;;;;;;;3.00;3.00;;;;;;;;5027080;28;45505;-64
2024/01/24 10:31:25;;;;;;;;;7.67;3.00;;;;;;;;5027455;28;45938;-64
2024/01/24 10:33:54;;;;;;;;;4.75;1.50;;;;;;;;5031347;28;45489;-65
2024/01/24 10:36:20;;;;;;;;;5.25;4.75;;;;;;;;5035977;28;45548;-64
2024/01/24 10:38:48;;;;;;;;;6.33;4.00;;;;;;;;5037562;28;45434;-64
2024/01/24 10:41:14;;;;;;;;;4.25;4.00;;;;;;;;5031999;28;45534;-64
2024/01/24 10:43:42;;;;;;;;;4.00;2.00;;;;;;;;5027880;28;45514;-64
2024/01/24 10:46:08;;;;;;;;;3.00;2.75;;;;;;;;5032759;28;45675;-65
2024/01/24 10:48:33;;;;;;;;;5.00;2.25;;;;;;;;5028476;28;45765;-65
2024/01/24 10:50:59;;;;;;;;;5.00;3.67;;;;;;;;5034006;28;45245;-66
2024/01/24 10:53:24;;;;;;;;;4.75;3.25;;;;;;;;5031255;28;45549;-65
2024/01/24 10:55:51;;;;;;;;;8.50;2.00;;;;;;;;5031058;28;45525;-65
2024/01/24 10:58:16;;;;;;;;;5.50;3.50;;;;;;;;5034274;28;45494;-65
2024/01/24 11:00:41;;;;;;;;;5.25;2.50;;;;;;;;5032909;28;45421;-65
2024/01/24 11:03:07;;;;;;;;;7.67;6.67;;;;;;;;5028910;28;45375;-65
2024/01/24 11:05:37;;;;;;;;;7.00;3.00;;;;;;;;5027133;28;46758;-65
2024/01/24 11:08:08;;;;;;;;;6.00;3.25;;;;;;;;5028080;28;45684;-66
2024/01/24 11:10:36;;;;;;;;;5.50;2.75;;;;;;;;5032392;28;45498;-66
2024/01/24 11:13:03;;;;;;;;;5.25;3.25;;;;;;;;5029692;28;45686;-65
2024/01/24 11:15:29;;;;;;;;;6.00;3.00;;;;;;;;5020809;28;47981;-66
2024/01/24 11:18:14;;;;;;;;;5.75;3.50;;;;;;;;5032324;28;45542;-66
2024/01/24 11:20:59;;;;;;;;;7.50;3.50;;;;;;;;5025643;28;45950;-66
2024/01/24 11:23:35;;;;;;;;;10.00;2.00;;;;;;;;5036125;28;45418;-66
2024/01/24 11:26:00;;;;;;;;;7.00;2.75;;;;;;;;5036583;28;45627;-66
2024/01/24 11:28:25;;;;;;;;;10.00;4.25;;;;;;;;5037814;28;45304;-66
2024/01/24 11:30:50;;;;;;;;;5.25;3.75;;;;;;;;5033999;28;45372;-66
2024/01/24 11:33:18;;;;;;;;;7.00;3.75;;;;;;;;5036262;28;45510;-66
2024/01/24 11:35:45;;;;;;;;;6.75;4.00;;;;;;;;5040199;28;45633;-66
2024/01/24 11:38:16;;;;;;;;;7.00;3.50;;;;;;;;5037180;28;45406;-66
2024/01/24 11:40:43;;;;;;;;;5.75;3.50;;;;;;;;5035432;28;45472;-66
2024/01/24 11:43:21;;;;;;;;;5.25;4.00;;;;;;;;5036199;28;46263;-66
2024/01/24 11:45:46;;;;;;;;;6.75;3.75;;;;;;;;5037064;28;46604;-65
2024/01/24 11:48:12;;;;;;;;;12.00;4.33;;;;;;;;5036914;28;45320;-66
2024/01/24 11:50:37;;;;;;;;;6.00;3.50;;;;;;;;5037496;28;45316;-66
2024/01/24 11:53:04;;;;;;;;;7.25;4.50;;;;;;;;5037212;28;45267;-66
2024/01/24 11:55:29;;;;;;;;;4.00;3.25;;;;;;;;5037549;28;46498;-66
2024/01/24 11:57:54;;;;;;;;;7.67;4.00;;;;;;;;5029963;28;45351;-66
2024/01/24 12:00:20;;;;;;;;;7.00;3.75;;;;;;;;5032209;28;45493;-66
2024/01/24 12:02:45;;;;;;;;;3.00;3.00;;;;;;;;5024405;28;45466;-66
2024/01/24 12:05:10;;;;;;;;;4.00;4.00;;;;;;;;5031818;28;47424;-66
2024/01/24 12:07:35;;;;;;;;;6.00;4.00;;;;;;;;5037720;28;45322;-66
2024/01/24 12:10:01;;;;;;;;;5.25;3.50;;;;;;;;5041278;28;45473;-66
2024/01/24 12:12:27;;;;;;;;;3.75;2.00;;;;;;;;5037075;28;45526;-66
2024/01/24 12:14:53;;;;;;;;;6.75;4.50;;;;;;;;5034067;28;45449;-66
2024/01/24 12:17:18;;;;;;;;;8.00;2.75;;;;;;;;5035787;28;45393;-66
2024/01/24 12:19:44;;;;;;;;;7.67;3.67;;;;;;;;5035031;28;45462;-66
2024/01/24 12:22:10;;;;;;;;;9.00;3.25;;;;;;;;5039897;28;45435;-66
2024/01/24 12:24:39;;;;;;;;;7.00;3.50;;;;;;;;5040670;28;45455;-66
2024/01/24 12:27:05;;;;;;;;;4.75;3.00;;;;;;;;5038065;28;45683;-66
2024/01/24 12:29:31;;;;;;;;;10.00;4.75;;;;;;;;5039717;28;45590;-66
2024/01/24 12:31:58;;;;;;;;;8.50;4.00;;;;;;;;5039738;28;45406;-66
2024/01/24 12:34:27;;;;;;;;;7.25;3.75;;;;;;;;5040799;28;45711;-66
2024/01/24 12:36:52;;;;;;;;;6.50;3.75;;;;;;;;5039247;28;45650;-66
2024/01/24 12:39:24;;;;;;;;;6.67;3.00;;;;;;;;5035480;28;45575;-66
2024/01/24 12:41:49;;;;;;;;;9.75;4.75;;;;;;;;5040288;28;45377;-66
2024/01/24 12:44:15;;;;;;;;;3.00;2.33;;;;;;;;5040843;28;45454;-66
2024/01/24 12:46:40;;;;;;;;;6.25;4.25;;;;;;;;5040369;28;45510;-66
2024/01/24 12:49:06;;;;;;;;;4.00;4.00;;;;;;;;5036543;28;45875;-66
2024/01/24 12:51:32;;;;;;;;;5.00;3.00;;;;;;;;5036300;28;45541;-66
2024/01/24 12:53:57;;;;;;;;;7.25;4.00;;;;;;;;5039901;28;45645;-66
2024/01/24 12:56:22;;;;;;;;;5.00;3.75;;;;;;;;5040514;28;45337;-66
2024/01/24 12:58:47;;;;;;;;;6.75;4.75;;;;;;;;5040454;28;45492;-66
2024/01/24 13:01:13;;;;;;;;;6.67;3.67;;;;;;;;5038571;28;45442;-66
2024/01/24 13:03:38;;;;;;;;;6.00;3.00;;;;;;;;5035244;28;46284;-66
2024/01/24 13:06:03;;;;;;;;;4.00;4.00;;;;;;;;5040159;28;45460;-66
2024/01/24 13:08:29;;;;;;;;;6.25;3.00;;;;;;;;5039657;28;45479;-66
2024/01/24 13:10:55;;;;;;;;;10.75;4.50;;;;;;;;5037962;28;45466;-66
2024/01/24 13:13:20;;;;;;;;;6.25;4.25;;;;;;;;5036909;28;45646;-66
2024/01/24 13:15:45;;;;;;;;;5.33;3.00;;;;;;;;5031940;28;45355;-66
2024/01/24 13:18:11;;;;;;;;;7.75;4.25;;;;;;;;5031026;28;45766;-66
2024/01/24 13:20:36;;;;;;;;;9.00;4.00;;;;;;;;5039006;28;45576;-66
2024/01/24 13:23:01;;;;;;;;;4.67;3.33;;;;;;;;5032314;28;47525;-66
2024/01/24 13:25:27;;;;;;;;;5.25;3.25;;;;;;;;5021047;28;45479;-66
2024/01/24 13:27:53;;;;;;;;;2.50;2.50;;;;;;;;5031385;28;45507;-66
2024/01/24 13:30:18;;;;;;;;;4.00;3.00;;;;;;;;5037414;28;45404;-66
2024/01/24 13:32:43;;;;;;;;;5.00;3.75;;;;;;;;5038699;28;46745;-66
2024/01/24 13:35:08;;;;;;;;;9.00;4.00;;;;;;;;5040166;28;45649;-65
2024/01/24 13:37:34;;;;;;;;;7.00;3.00;;;;;;;;5029940;28;45650;-66
2024/01/24 13:39:59;;;;;;;;;5.75;3.50;;;;;;;;5035734;28;45715;-66
2024/01/24 13:42:25;;;;;;;;;6.00;3.00;;;;;;;;5033430;28;46817;-66
2024/01/24 13:44:50;;;;;;;;;8.75;4.25;;;;;;;;5035356;28;45442;-66
2024/01/24 13:47:15;;;;;;;;;5.00;4.00;;;;;;;;5037517;28;45419;-66
2024/01/24 13:49:42;;;;;;;;;7.00;3.25;;;;;;;;5029957;28;45641;-66
2024/01/24 13:52:07;;;;;;;;;6.00;3.50;;;;;;;;5039465;28;46616;-66
2024/01/24 13:54:33;;;;;;;;;4.33;4.00;;;;;;;;5033121;28;45638;-66
2024/01/24 13:56:58;;;;;;;;;8.33;3.00;;;;;;;;5039511;28;45526;-65
2024/01/24 13:59:23;;;;;;;;;5.75;3.00;;;;;;;;5037742;28;45449;-66
2024/01/24 14:01:48;;;;;;;;;8.67;4.67;;;;;;;;5037716;28;45517;-66
2024/01/24 14:04:14;;;;;;;;;5.00;3.75;;;;;;;;5030020;28;45404;-66
2024/01/24 14:06:39;;;;;;;;;5.25;4.75;;;;;;;;5028882;28;45497;-66
2024/01/24 14:09:04;;;;;;;;;10.00;3.33;;;;;;;;5033018;28;45548;-66
2024/01/24 14:11:29;;;;;;;;;6.33;2.33;;;;;;;;5037453;28;45403;-66
2024/01/24 14:13:54;;;;;;;;;5.00;4.00;;;;;;;;5032351;28;45468;-65
2024/01/24 14:16:20;;;;;;;;;4.00;2.33;;;;;;;;5027732;28;46085;-65
2024/01/24 14:18:45;;;;;;;;;7.25;5.50;;;;;;;;5029743;28;45536;-65
2024/01/24 14:21:11;;;;;;;;;5.00;3.67;;;;;;;;5030777;28;45693;-64
2024/01/24 14:23:37;;;;;;;;;7.00;3.00;;;;;;;;5024073;28;45324;-66
2024/01/24 14:26:02;;;;;;;;;8.00;3.75;;;;;;;;5034976;28;45430;-66
2024/01/24 14:28:28;;;;;;;;;6.00;3.25;;;;;;;;5035819;28;45529;-66
2024/01/24 14:30:53;;;;;;;;;5.33;4.00;;;;;;;;5030160;28;45724;-67
2024/01/24 14:33:18;;;;;;;;;3.00;3.00;;;;;;;;5026126;28;45677;-66
2024/01/24 14:35:43;;;;;;;;;2.75;2.50;;;;;;;;5038191;28;45453;-66
2024/01/24 14:38:08;;;;;;;;;6.67;3.00;;;;;;;;5033094;28;45916;-66
2024/01/24 14:40:34;;;;;;;;;8.50;3.25;;;;;;;;5034553;28;45458;-66